Time,TemperatureF,DewpointF,PressureIn,WindDirection,WindDirectionDegrees,WindSpeedMPH,WindSpeedGustMPH,Humidity,HourlyPrecipIn,Conditions,Clouds,dailyrainin,SoftwareType,DateUTC
2013-04-14 00:02:00,25.0,24.0,-100.00,West,277,24.0,32.0,98,0.00,,,-99.99,,2013-04-14 06:02:00,
2013-04-14 00:12:00,24.0,23.0,-100.00,West,277,26.0,32.0,96,0.00,,,-99.99,,2013-04-14 06:12:00,
2013-04-14 00:22:00,24.0,19.0,-100.00,West,277,24.0,31.0,83,0.00,,,-99.99,,2013-04-14 06:22:00,
2013-04-14 00:32:00,24.0,18.0,-100.00,West,277,24.0,29.0,76,0.00,,,-99.99,,2013-04-14 06:32:00,
2013-04-14 00:42:00,24.0,18.0,-100.00,West,277,22.0,29.0,77,0.00,,,-99.99,,2013-04-14 06:42:00,
2013-04-14 00:52:00,24.0,18.0,-100.00,West,277,21.0,29.0,80,0.00,,,-99.99,,2013-04-14 06:52:00,
2013-04-14 01:02:00,24.0,18.0,-100.00,West,277,21.0,28.0,77,0.00,,,-99.99,,2013-04-14 07:02:00,
2013-04-14 01:12:00,24.0,18.0,-100.00,West,277,21.0,29.0,80,0.00,,,-99.99,,2013-04-14 07:12:00,
2013-04-14 01:22:00,24.0,17.0,-100.00,West,277,24.0,34.0,75,0.00,,,-99.99,,2013-04-14 07:22:00,
2013-04-14 01:32:00,24.0,17.0,-100.00,West,277,22.0,31.0,78,0.00,,,-99.99,,2013-04-14 07:32:00,
2013-04-14 01:42:00,23.0,17.0,-100.00,SW,230,22.0,31.0,76,0.00,,,-99.99,,2013-04-14 07:42:00,
2013-04-14 01:52:00,23.0,16.0,-100.00,SW,230,24.0,30.0,74,0.00,,,-99.99,,2013-04-14 07:52:00,
2013-04-14 02:02:00,22.0,16.0,-100.00,SW,230,23.0,30.0,77,0.00,,,-99.99,,2013-04-14 08:02:00,
2013-04-14 02:12:00,22.0,16.0,-100.00,SW,230,22.0,29.0,76,0.00,,,-99.99,,2013-04-14 08:12:00,
2013-04-14 02:22:00,22.0,15.0,-100.00,SW,230,20.0,26.0,75,0.00,,,-99.99,,2013-04-14 08:22:00,
2013-04-14 02:32:00,21.0,15.0,-100.00,SW,230,22.0,31.0,75,0.00,,,-99.99,,2013-04-14 08:32:00,
2013-04-14 02:42:00,22.0,15.0,-100.00,SW,230,24.0,31.0,73,0.00,,,-99.99,,2013-04-14 08:42:00,
2013-04-14 02:52:00,22.0,14.0,-100.00,SW,230,24.0,32.0,72,0.00,,,-99.99,,2013-04-14 08:52:00,
2013-04-14 03:02:00,21.0,14.0,-100.00,SW,230,22.0,29.0,74,0.00,,,-99.99,,2013-04-14 09:02:00,
2013-04-14 03:12:00,21.0,14.0,-100.00,SW,230,21.0,28.0,75,0.00,,,-99.99,,2013-04-14 09:12:00,
2013-04-14 03:22:00,21.0,14.0,-100.00,SW,230,23.0,32.0,74,0.00,,,-99.99,,2013-04-14 09:22:00,
2013-04-14 03:32:00,21.0,15.0,-100.00,SW,230,26.0,34.0,77,0.00,,,-99.99,,2013-04-14 09:32:00,
2013-04-14 03:42:00,20.0,15.0,-100.00,SW,230,23.0,31.0,79,0.00,,,-99.99,,2013-04-14 09:42:00,
2013-04-14 03:53:00,20.0,15.0,-100.00,SW,230,21.0,26.0,81,0.00,,,-99.99,,2013-04-14 09:53:00,
2013-04-14 04:03:00,19.0,15.0,-100.00,SW,230,21.0,28.0,82,0.00,,,-99.99,,2013-04-14 10:03:00,
2013-04-14 04:12:00,19.0,14.0,-100.00,SW,230,21.0,27.0,82,0.00,,,-99.99,,2013-04-14 10:12:00,
2013-04-14 04:23:00,18.0,14.0,-100.00,SW,230,20.0,26.0,84,0.00,,,-99.99,,2013-04-14 10:23:00,
2013-04-14 04:32:00,17.0,12.0,-100.00,SW,230,18.0,26.0,80,0.00,,,-99.99,,2013-04-14 10:32:00,
2013-04-14 04:42:00,17.0,10.0,-100.00,SW,230,18.0,26.0,75,0.00,,,-99.99,,2013-04-14 10:42:00,
2013-04-14 04:52:00,16.0,8.0,-100.00,SW,230,13.0,20.0,72,0.00,,,-99.99,,2013-04-14 10:52:00,
2013-04-14 05:02:00,15.0,9.0,-100.00,SW,230,12.0,20.0,76,0.00,,,-99.99,,2013-04-14 11:02:00,
2013-04-14 05:12:00,15.0,9.0,-100.00,WSW,247,12.0,20.0,76,0.00,,,-99.99,,2013-04-14 11:12:00,
2013-04-14 05:22:00,16.0,9.0,-100.00,West,264,16.0,26.0,75,0.00,,,-99.99,,2013-04-14 11:22:00,
2013-04-14 05:32:00,16.0,9.0,-100.00,West,267,22.0,30.0,75,0.00,,,-99.99,,2013-04-14 11:32:00,
2013-04-14 05:42:00,15.0,9.0,-100.00,West,272,19.0,28.0,77,0.00,,,-99.99,,2013-04-14 11:42:00,
2013-04-14 05:52:00,15.0,9.0,-100.00,West,272,17.0,23.0,78,0.00,,,-99.99,,2013-04-14 11:52:00,
2013-04-14 06:02:00,14.0,9.0,-100.00,West,272,16.0,22.0,78,0.00,,,-99.99,,2013-04-14 12:02:00,
2013-04-14 06:12:00,14.0,9.0,-100.00,West,272,15.0,22.0,78,0.00,,,-99.99,,2013-04-14 12:12:00,
2013-04-14 06:21:00,14.0,8.0,-100.00,West,261,15.0,24.0,78,0.00,,,-99.99,,2013-04-14 12:21:00,
2013-04-14 06:32:00,14.0,8.0,-100.00,West,264,17.0,23.0,79,0.00,,,-99.99,,2013-04-14 12:32:00,
2013-04-14 06:42:00,14.0,9.0,-100.00,West,265,15.0,21.0,80,0.00,,,-99.99,,2013-04-14 12:42:00,
2013-04-14 06:51:00,13.0,9.0,-100.00,West,271,14.0,22.0,82,0.00,,,-99.99,,2013-04-14 12:51:00,
2013-04-14 07:02:00,14.0,8.0,-100.00,WSW,256,16.0,23.0,78,0.00,,,-99.99,,2013-04-14 13:02:00,
2013-04-14 07:12:00,13.0,8.0,-100.00,WSW,254,17.0,23.0,77,0.00,,,-99.99,,2013-04-14 13:12:00,
2013-04-14 07:22:00,14.0,8.0,-100.00,West,260,17.0,25.0,79,0.00,,,-99.99,,2013-04-14 13:22:00,
2013-04-14 07:32:00,14.0,9.0,-100.00,West,263,21.0,27.0,81,0.00,,,-99.99,,2013-04-14 13:32:00,
2013-04-14 07:42:00,13.0,9.0,-100.00,WSW,258,24.0,30.0,84,0.00,,,-99.99,,2013-04-14 13:42:00,
2013-04-14 07:52:00,14.0,10.0,-100.00,WSW,258,25.0,33.0,83,0.00,,,-99.99,,2013-04-14 13:52:00,
2013-04-14 08:02:00,14.0,9.0,-100.00,WSW,258,24.0,32.0,80,0.01,,,-99.99,,2013-04-14 14:02:00,
2013-04-14 08:12:00,15.0,8.0,-100.00,West,263,27.0,35.0,76,0.00,,,-99.99,,2013-04-14 14:12:00,
2013-04-14 08:22:00,14.0,9.0,-100.00,West,265,29.0,37.0,82,0.01,,,-99.99,,2013-04-14 14:22:00,
2013-04-14 08:32:00,13.0,9.0,-100.00,West,268,32.0,43.0,83,0.00,,,-99.99,,2013-04-14 14:32:00,
2013-04-14 08:42:00,13.0,8.0,-100.00,West,265,32.0,40.0,80,0.01,,,-99.99,,2013-04-14 14:42:00,
2013-04-14 08:52:00,13.0,9.0,-100.00,West,260,27.0,37.0,83,0.00,,,-99.99,,2013-04-14 14:52:00,
2013-04-14 09:02:00,14.0,7.0,-100.00,West,261,28.0,39.0,73,0.01,,,-99.99,,2013-04-14 15:02:00,
2013-04-14 09:12:00,13.0,7.0,-100.00,West,263,31.0,44.0,74,0.01,,,-99.99,,2013-04-14 15:12:00,
2013-04-14 09:22:00,13.0,7.0,-100.00,West,264,32.0,42.0,76,0.01,,,-99.99,,2013-04-14 15:22:00,
2013-04-14 09:33:00,14.0,7.0,-100.00,West,264,34.0,44.0,74,0.00,,,-99.99,,2013-04-14 15:33:00,
2013-04-14 09:43:00,14.0,7.0,-100.00,West,265,32.0,41.0,74,0.00,,,-99.99,,2013-04-14 15:43:00,
2013-04-14 09:52:00,14.0,7.0,-100.00,West,264,28.0,36.0,75,0.00,,,-99.99,,2013-04-14 15:52:00,
2013-04-14 10:04:00,14.0,7.0,-100.00,West,265,24.0,32.0,72,0.00,,,-99.99,,2013-04-14 16:04:00,
2013-04-14 10:13:00,14.0,6.0,-100.00,West,265,26.0,35.0,72,0.00,,,-99.99,,2013-04-14 16:13:00,
2013-04-14 10:22:00,14.0,7.0,-100.00,West,265,26.0,36.0,74,0.00,,,-99.99,,2013-04-14 16:22:00,
2013-04-14 10:32:00,15.0,7.0,-100.00,West,271,23.0,37.0,70,0.00,,,-99.99,,2013-04-14 16:32:00,
2013-04-14 10:43:00,15.0,6.0,-100.00,West,268,23.0,37.0,67,0.00,,,-99.99,,2013-04-14 16:43:00,
2013-04-14 10:52:00,16.0,7.0,-100.00,West,265,29.0,40.0,67,0.00,,,-99.99,,2013-04-14 16:52:00,
2013-04-14 11:02:00,16.0,8.0,-100.00,West,264,32.0,40.0,70,0.00,,,-99.99,,2013-04-14 17:02:00,
2013-04-14 11:12:00,16.0,6.0,-100.00,West,264,32.0,41.0,66,0.00,,,-99.99,,2013-04-14 17:12:00,
2013-04-14 11:22:00,16.0,7.0,-100.00,West,264,33.0,40.0,67,0.00,,,-99.99,,2013-04-14 17:22:00,
2013-04-14 11:32:00,17.0,6.0,-100.00,WSW,248,32.0,42.0,63,0.00,,,-99.99,,2013-04-14 17:32:00,
2013-04-14 11:42:00,17.0,7.0,-100.00,SW,219,31.0,40.0,64,0.00,,,-99.99,,2013-04-14 17:42:00,
2013-04-14 11:52:00,17.0,9.0,-100.00,WSW,253,31.0,40.0,69,0.00,,,-99.99,,2013-04-14 17:52:00,
2013-04-14 12:02:00,16.0,9.0,-100.00,West,264,29.0,37.0,74,0.00,,,-99.99,,2013-04-14 18:02:00,
2013-04-14 12:12:00,16.0,11.0,-100.00,West,265,30.0,39.0,78,0.00,,,-99.99,,2013-04-14 18:12:00,
2013-04-14 12:22:00,17.0,12.0,-100.00,West,263,28.0,37.0,81,0.00,,,-99.99,,2013-04-14 18:22:00,
2013-04-14 12:32:00,17.0,12.0,-100.00,West,261,27.0,36.0,83,0.00,,,-99.99,,2013-04-14 18:32:00,
2013-04-14 12:42:00,16.0,12.0,-100.00,West,263,30.0,37.0,82,0.00,,,-99.99,,2013-04-14 18:42:00,
2013-04-14 12:52:00,16.0,12.0,-100.00,West,265,27.0,37.0,83,0.00,,,-99.99,,2013-04-14 18:52:00,
2013-04-14 13:03:00,15.0,11.0,-100.00,West,264,31.0,42.0,84,0.00,,,-99.99,,2013-04-14 19:03:00,
2013-04-14 13:12:00,16.0,10.0,-100.00,West,264,31.0,43.0,79,0.01,,,-99.99,,2013-04-14 19:12:00,
2013-04-14 13:22:00,15.0,13.0,-100.00,West,264,32.0,42.0,91,0.11,,,-99.99,,2013-04-14 19:22:00,
2013-04-14 13:32:00,15.0,14.0,-100.00,West,274,23.0,39.0,93,0.03,,,-99.99,,2013-04-14 19:32:00,
2013-04-14 13:52:00,17.0,11.0,-100.00,West,271,22.0,35.0,76,0.00,,,-99.99,,2013-04-14 19:52:00,
2013-04-14 14:02:00,17.0,11.0,-100.00,West,264,31.0,40.0,78,0.03,,,-99.99,,2013-04-14 20:02:00,
2013-04-14 14:12:00,16.0,12.0,-100.00,West,264,34.0,45.0,85,0.04,,,-99.99,,2013-04-14 20:12:00,
2013-04-14 14:22:00,18.0,11.0,-100.00,West,267,29.0,39.0,73,0.01,,,-99.99,,2013-04-14 20:22:00,
2013-04-14 14:32:00,18.0,11.0,-100.00,West,260,29.0,41.0,73,0.00,,,-99.99,,2013-04-14 20:32:00,
2013-04-14 14:42:00,19.0,10.0,-100.00,WSW,240,27.0,41.0,68,0.00,,,-99.99,,2013-04-14 20:42:00,
2013-04-14 14:52:00,20.0,9.0,-100.00,SW,226,27.0,40.0,62,0.00,,,-99.99,,2013-04-14 20:52:00,
2013-04-14 15:02:00,19.0,8.0,-100.00,SW,226,26.0,38.0,63,0.00,,,-99.99,,2013-04-14 21:02:00,
2013-04-14 15:12:00,21.0,11.0,-100.00,SW,226,27.0,38.0,67,0.00,,,-99.99,,2013-04-14 21:12:00,
2013-04-14 15:22:00,20.0,10.0,-100.00,West,278,25.0,34.0,66,0.00,,,-99.99,,2013-04-14 21:22:00,
2013-04-14 15:33:00,21.0,9.0,-100.00,West,280,28.0,41.0,58,0.00,,,-99.99,,2013-04-14 21:33:00,
2013-04-14 15:43:00,21.0,11.0,-100.00,West,260,31.0,42.0,65,0.00,,,-99.99,,2013-04-14 21:43:00,
2013-04-14 15:53:00,21.0,9.0,-100.00,SW,226,22.0,32.0,61,0.00,,,-99.99,,2013-04-14 21:53:00,
2013-04-14 16:02:00,19.0,12.0,-100.00,SW,226,24.0,33.0,72,0.00,,,-99.99,,2013-04-14 22:02:00,
2013-04-14 16:12:00,21.0,9.0,-100.00,SW,227,26.0,37.0,62,0.00,,,-99.99,,2013-04-14 22:12:00,
2013-04-14 16:23:00,21.0,9.0,-100.00,WSW,239,31.0,40.0,61,0.00,,,-99.99,,2013-04-14 22:23:00,
2013-04-14 16:32:00,21.0,11.0,-100.00,West,275,24.0,35.0,65,0.00,,,-99.99,,2013-04-14 22:32:00,
2013-04-14 16:43:00,19.0,12.0,-100.00,West,281,26.0,38.0,73,0.00,,,-99.99,,2013-04-14 22:43:00,
2013-04-14 16:52:00,21.0,11.0,-100.00,WNW,282,25.0,35.0,65,0.00,,,-99.99,,2013-04-14 22:52:00,
2013-04-14 17:02:00,21.0,11.0,-100.00,WNW,282,22.0,33.0,64,0.00,,,-99.99,,2013-04-14 23:02:00,
2013-04-14 17:12:00,21.0,10.0,-100.00,WNW,282,21.0,35.0,62,0.00,,,-99.99,,2013-04-14 23:12:00,
2013-04-14 17:22:00,21.0,9.0,-100.00,WNW,282,21.0,32.0,58,0.00,,,-99.99,,2013-04-14 23:22:00,
2013-04-14 17:32:00,21.0,8.0,-100.00,WNW,282,21.0,30.0,56,0.00,,,-99.99,,2013-04-14 23:32:00,
2013-04-14 17:42:00,22.0,9.0,-100.00,WNW,282,21.0,34.0,58,0.00,,,-99.99,,2013-04-14 23:42:00,
2013-04-14 17:52:00,23.0,6.0,-100.00,WNW,282,21.0,34.0,48,0.00,,,-99.99,,2013-04-14 23:52:00,
2013-04-14 18:02:00,22.0,6.0,-100.00,WNW,282,26.0,36.0,50,0.00,,,-99.99,,2013-04-15 00:02:00,
2013-04-14 18:12:00,22.0,7.0,-100.00,WNW,282,26.0,35.0,51,0.00,,,-99.99,,2013-04-15 00:12:00,
2013-04-14 18:22:00,23.0,6.0,-100.00,WNW,282,26.0,36.0,47,0.00,,,-99.99,,2013-04-15 00:22:00,
2013-04-14 18:32:00,23.0,8.0,-100.00,WNW,282,19.0,31.0,51,0.00,,,-99.99,,2013-04-15 00:32:00,
2013-04-14 18:42:00,22.0,7.0,-100.00,WNW,282,19.0,29.0,52,0.00,,,-99.99,,2013-04-15 00:42:00,
2013-04-14 18:52:00,22.0,7.0,-100.00,WNW,282,16.0,27.0,52,0.00,,,-99.99,,2013-04-15 00:52:00,
2013-04-14 19:02:00,22.0,8.0,-100.00,WNW,282,15.0,21.0,54,0.00,,,-99.99,,2013-04-15 01:02:00,
2013-04-14 19:12:00,22.0,6.0,-100.00,WNW,282,17.0,27.0,49,0.00,,,-99.99,,2013-04-15 01:12:00,
2013-04-14 19:23:00,22.0,7.0,-100.00,WNW,282,17.0,27.0,51,0.00,,,-99.99,,2013-04-15 01:23:00,
2013-04-14 19:42:00,21.0,4.0,-100.00,WNW,282,17.0,24.0,48,0.00,,,-99.99,,2013-04-15 01:42:00,
2013-04-14 19:52:00,21.0,4.0,-100.00,WNW,282,16.0,26.0,48,0.00,,,-99.99,,2013-04-15 01:52:00,
2013-04-14 20:02:00,21.0,4.0,-100.00,WNW,282,16.0,24.0,48,0.00,,,-99.99,,2013-04-15 02:02:00,
2013-04-14 20:12:00,21.0,4.0,-100.00,WNW,282,16.0,26.0,47,0.00,,,-99.99,,2013-04-15 02:12:00,
2013-04-14 20:22:00,21.0,4.0,-100.00,WNW,282,17.0,24.0,48,0.00,,,-99.99,,2013-04-15 02:22:00,
2013-04-14 20:32:00,21.0,4.0,-100.00,WNW,282,15.0,25.0,48,0.00,,,-99.99,,2013-04-15 02:32:00,
2013-04-14 20:42:00,20.0,4.0,-100.00,WNW,282,15.0,24.0,48,0.00,,,-99.99,,2013-04-15 02:42:00,
2013-04-14 20:52:00,21.0,2.0,-100.00,WNW,282,14.0,21.0,43,0.00,,,-99.99,,2013-04-15 02:52:00,
2013-04-14 21:02:00,21.0,2.0,-100.00,WNW,282,16.0,24.0,43,0.00,,,-99.99,,2013-04-15 03:02:00,
2013-04-14 21:12:00,21.0,2.0,-100.00,WNW,282,15.0,21.0,44,0.00,,,-99.99,,2013-04-15 03:12:00,
2013-04-14 21:22:00,21.0,2.0,-100.00,WNW,282,12.0,17.0,44,0.00,,,-99.99,,2013-04-15 03:22:00,
2013-04-14 21:32:00,21.0,2.0,-100.00,WNW,282,14.0,20.0,42,0.00,,,-99.99,,2013-04-15 03:32:00,
2013-04-14 21:43:00,21.0,2.0,-100.00,WNW,282,15.0,20.0,43,0.00,,,-99.99,,2013-04-15 03:43:00,
2013-04-14 21:54:00,20.0,5.0,-100.00,WNW,282,14.0,21.0,51,0.00,,,-99.99,,2013-04-15 03:54:00,
2013-04-14 22:03:00,20.0,6.0,-100.00,WNW,282,10.0,15.0,54,0.00,,,-99.99,,2013-04-15 04:03:00,
2013-04-14 22:13:00,20.0,6.0,-100.00,WNW,282,8.0,14.0,54,0.00,,,-99.99,,2013-04-15 04:13:00,
2013-04-14 22:22:00,19.0,8.0,-100.00,WNW,282,7.0,11.0,62,0.00,,,-99.99,,2013-04-15 04:22:00,
2013-04-14 22:33:00,20.0,8.0,-100.00,WNW,282,9.0,12.0,60,0.00,,,-99.99,,2013-04-15 04:33:00,
2013-04-14 22:42:00,20.0,8.0,-100.00,WNW,282,9.0,11.0,59,0.00,,,-99.99,,2013-04-15 04:42:00,
2013-04-14 22:52:00,20.0,7.0,-100.00,WNW,282,9.0,11.0,56,0.00,,,-99.99,,2013-04-15 04:52:00,
2013-04-14 23:02:00,19.0,8.0,-100.00,WNW,282,7.0,12.0,60,0.00,,,-99.99,,2013-04-15 05:02:00,
2013-04-14 23:12:00,19.0,8.0,-100.00,WNW,282,5.0,9.0,60,0.00,,,-99.99,,2013-04-15 05:12:00,
2013-04-14 23:23:00,20.0,7.0,-100.00,WNW,282,6.0,7.0,57,0.00,,,-99.99,,2013-04-15 05:23:00,
2013-04-14 23:32:00,20.0,8.0,-100.00,WNW,282,6.0,7.0,60,0.00,,,-99.99,,2013-04-15 05:32:00,
2013-04-14 23:42:00,19.0,7.0,-100.00,WNW,282,5.0,7.0,58,0.00,,,-99.99,,2013-04-15 05:42:00,
2013-04-14 23:52:00,20.0,6.0,-100.00,WNW,282,5.0,7.0,55,0.00,,,-99.99,,2013-04-15 05:52:00,